Time;durP1;ratioP1;P1;durP2;ratioP2;P2;SDS_P1;SDS_P2;PMS_P1;PMS_P2;Temp;Humidity;BMP_temperature;BMP_pressure;BME280_temperature;BME280_humidity;BME280_pressure;Samples;Min_cycle;Max_cycle;Signal;HPM_P1;HPM_P2
2024/01/30 00:00:17;;;;;;;4.40;4.00;;;;;;;;;;5061464;28;20283;-66
2024/01/30 00:02:45;;;;;;;6.57;4.97;;;;;;;;;;5060671;28;20287;-67
2024/01/30 00:05:11;;;;;;;5.73;4.60;;;;;;;;;;5060180;28;20263;-66
2024/01/30 00:07:40;;;;;;;5.47;4.80;;;;;;;;;;5057683;28;20204;-66
2024/01/30 00:10:07;;;;;;;5.57;4.60;;;;;;;;;;5057594;28;20318;-65
2024/01/30 00:12:34;;;;;;;5.40;4.37;;;;;;;;;;5056675;28;20203;-66
2024/01/30 00:15:04;;;;;;;4.73;4.33;;;;;;;;;;5055501;28;20286;-65
2024/01/30 00:17:31;;;;;;;5.07;4.57;;;;;;;;;;5064047;28;20210;-66
2024/01/30 00:19:58;;;;;;;6.90;4.80;;;;;;;;;;5057384;28;20202;-66
2024/01/30 00:22:25;;;;;;;5.03;4.43;;;;;;;;;;5060294;28;20293;-66
2024/01/30 00:24:54;;;;;;;5.27;4.47;;;;;;;;;;5063862;28;20213;-66
2024/01/30 00:27:21;;;;;;;4.97;4.30;;;;;;;;;;5059187;28;20290;-66
2024/01/30 00:29:49;;;;;;;6.90;4.73;;;;;;;;;;5061076;28;20299;-67
2024/01/30 00:32:16;;;;;;;6.20;4.60;;;;;;;;;;5058974;28;20198;-66
2024/01/30 00:34:43;;;;;;;6.37;4.80;;;;;;;;;;5060128;28;20268;-67
2024/01/30 00:37:10;;;;;;;4.80;4.27;;;;;;;;;;5058665;28;20205;-67
2024/01/30 00:39:37;;;;;;;5.30;4.80;;;;;;;;;;5057642;28;20290;-66
2024/01/30 00:42:06;;;;;;;5.40;4.63;;;;;;;;;;5062345;28;20294;-67
2024/01/30 00:44:37;;;;;;;6.33;4.30;;;;;;;;;;5058893;28;20297;-66
2024/01/30 00:47:04;;;;;;;5.17;4.67;;;;;;;;;;5056247;28;20227;-65
2024/01/30 00:49:31;;;;;;;6.50;4.70;;;;;;;;;;5062398;28;20222;-66
2024/01/30 00:51:58;;;;;;;5.00;4.50;;;;;;;;;;5065122;28;20212;-66
2024/01/30 00:54:25;;;;;;;5.70;4.77;;;;;;;;;;5059495;28;20221;-65
2024/01/30 00:56:52;;;;;;;6.07;4.37;;;;;;;;;;5061528;28;20231;-67
2024/01/30 00:59:21;;;;;;;6.17;5.00;;;;;;;;;;5060955;28;20246;-67
2024/01/30 01:01:48;;;;;;;5.37;4.60;;;;;;;;;;5058797;28;20314;-67
2024/01/30 01:04:15;;;;;;;4.97;4.40;;;;;;;;;;5057311;28;20290;-67
2024/01/30 01:06:43;;;;;;;6.07;4.73;;;;;;;;;;5057822;28;20225;-65
2024/01/30 01:09:11;;;;;;;5.83;4.83;;;;;;;;;;5062534;28;20214;-65
2024/01/30 01:11:38;;;;;;;5.90;5.03;;;;;;;;;;5061634;28;20211;-62
2024/01/30 01:14:06;;;;;;;7.33;5.20;;;;;;;;;;5058805;28;20202;-62
2024/01/30 01:16:34;;;;;;;6.40;5.20;;;;;;;;;;5059692;28;20553;-61
2024/01/30 01:19:02;;;;;;;6.17;5.00;;;;;;;;;;5055070;28;20204;-61
2024/01/30 01:21:29;;;;;;;6.20;4.90;;;;;;;;;;5057382;28;20202;-62
2024/01/30 01:23:56;;;;;;;6.20;5.23;;;;;;;;;;5058642;28;20221;-61
2024/01/30 01:26:23;;;;;;;7.50;5.07;;;;;;;;;;5059795;28;20209;-61
2024/01/30 01:28:50;;;;;;;5.60;5.10;;;;;;;;;;5058285;28;20195;-61
2024/01/30 01:31:17;;;;;;;6.57;4.90;;;;;;;;;;5060089;28;20207;-61
2024/01/30 01:33:46;;;;;;;7.17;5.00;;;;;;;;;;5056886;28;20227;-62
2024/01/30 01:36:13;;;;;;;5.97;5.20;;;;;;;;;;5057662;28;20259;-61
2024/01/30 01:38:40;;;;;;;7.23;5.27;;;;;;;;;;5057117;28;20198;-61
2024/01/30 01:41:07;;;;;;;5.30;4.80;;;;;;;;;;5062350;28;20221;-61
2024/01/30 01:43:34;;;;;;;6.20;4.87;;;;;;;;;;5055885;28;20195;-61
2024/01/30 01:46:02;;;;;;;6.37;5.47;;;;;;;;;;5057755;28;20211;-62
2024/01/30 01:48:29;;;;;;;6.90;5.13;;;;;;;;;;5058586;28;20202;-61
2024/01/30 01:50:57;;;;;;;6.20;4.90;;;;;;;;;;5055339;28;20212;-62
2024/01/30 01:53:25;;;;;;;8.17;5.53;;;;;;;;;;5055061;28;20207;-61
2024/01/30 01:55:53;;;;;;;6.70;5.77;;;;;;;;;;5061857;28;20209;-62
2024/01/30 01:58:22;;;;;;;7.90;5.50;;;;;;;;;;5058207;28;20199;-62
2024/01/30 02:00:49;;;;;;;7.00;5.10;;;;;;;;;;5062694;28;20237;-62
2024/01/30 02:03:17;;;;;;;6.87;5.30;;;;;;;;;;5063628;28;20211;-62
2024/01/30 02:05:44;;;;;;;6.10;5.50;;;;;;;;;;5060980;28;20202;-61
2024/01/30 02:08:12;;;;;;;8.53;6.00;;;;;;;;;;5057987;28;20298;-61
2024/01/30 02:10:40;;;;;;;7.27;5.30;;;;;;;;;;5051611;28;20305;-61
2024/01/30 02:13:07;;;;;;;8.00;5.87;;;;;;;;;;5059229;28;20205;-61
2024/01/30 02:15:34;;;;;;;7.33;5.70;;;;;;;;;;5058062;28;20217;-62
2024/01/30 02:18:01;;;;;;;6.73;5.90;;;;;;;;;;5058739;28;20289;-61
2024/01/30 02:20:30;;;;;;;6.27;5.60;;;;;;;;;;5052072;28;20206;-61
2024/01/30 02:23:01;;;;;;;7.77;5.50;;;;;;;;;;5059379;28;20456;-63
2024/01/30 02:25:32;;;;;;;7.23;5.67;;;;;;;;;;5061691;28;20194;-62
2024/01/30 02:27:59;;;;;;;6.90;5.43;;;;;;;;;;5062418;28;20207;-61
2024/01/30 02:30:26;;;;;;;6.93;6.00;;;;;;;;;;5054240;28;20203;-61
2024/01/30 02:32:54;;;;;;;5.87;5.27;;;;;;;;;;5062016;28;20200;-61
2024/01/30 02:35:21;;;;;;;8.00;6.33;;;;;;;;;;5059220;28;20203;-62
2024/01/30 02:37:48;;;;;;;8.53;5.87;;;;;;;;;;5061108;28;20282;-61
2024/01/30 02:40:16;;;;;;;7.93;5.93;;;;;;;;;;5061534;28;20213;-63
2024/01/30 02:42:44;;;;;;;10.17;6.33;;;;;;;;;;5063595;28;20290;-61
2024/01/30 02:45:12;;;;;;;7.93;6.20;;;;;;;;;;5060642;28;20242;-62
2024/01/30 02:47:39;;;;;;;7.47;6.10;;;;;;;;;;5064868;28;20206;-61
2024/01/30 02:50:06;;;;;;;7.23;5.83;;;;;;;;;;5060608;28;20285;-62
2024/01/30 02:52:33;;;;;;;7.97;6.67;;;;;;;;;;5060884;28;20211;-61
2024/01/30 02:55:01;;;;;;;11.30;6.33;;;;;;;;;;5061670;28;20208;-61
2024/01/30 02:57:30;;;;;;;7.63;6.07;;;;;;;;;;5055151;28;20266;-61
2024/01/30 02:59:57;;;;;;;9.67;6.87;;;;;;;;;;5058864;28;20295;-61
2024/01/30 03:02:24;;;;;;;8.00;6.17;;;;;;;;;;5059411;28;20215;-62
2024/01/30 03:04:51;;;;;;;9.37;7.03;;;;;;;;;;5058830;28;20238;-62
2024/01/30 03:07:19;;;;;;;8.67;6.30;;;;;;;;;;5064078;28;20289;-61
2024/01/30 03:09:46;;;;;;;8.40;6.90;;;;;;;;;;5055406;28;20288;-61
2024/01/30 03:12:13;;;;;;;8.33;6.67;;;;;;;;;;5063145;28;20227;-61
2024/01/30 03:14:42;;;;;;;7.13;5.97;;;;;;;;;;5063650;28;20196;-61
2024/01/30 03:17:09;;;;;;;8.40;6.10;;;;;;;;;;5062890;28;20222;-61
2024/01/30 03:19:36;;;;;;;9.00;6.20;;;;;;;;;;5060312;28;20229;-62
2024/01/30 03:22:03;;;;;;;7.43;5.83;;;;;;;;;;5060766;28;20325;-61
2024/01/30 03:24:30;;;;;;;8.90;6.50;;;;;;;;;;5060811;28;20211;-62
2024/01/30 03:26:57;;;;;;;7.50;6.10;;;;;;;;;;5060571;28;20211;-61
2024/01/30 03:29:24;;;;;;;6.13;5.50;;;;;;;;;;5060262;28;20206;-62
2024/01/30 03:31:53;;;;;;;7.53;5.83;;;;;;;;;;5061662;28;20214;-60
2024/01/30 03:34:20;;;;;;;8.10;5.70;;;;;;;;;;5059522;28;20196;-61
2024/01/30 03:36:47;;;;;;;7.77;6.13;;;;;;;;;;5063504;28;20245;-61
2024/01/30 03:39:14;;;;;;;8.33;6.57;;;;;;;;;;5058129;28;20452;-61
2024/01/30 03:41:44;;;;;;;7.87;5.90;;;;;;;;;;5065665;28;20198;-62
2024/01/30 03:44:11;;;;;;;10.13;6.60;;;;;;;;;;5062248;28;20269;-62
2024/01/30 03:46:38;;;;;;;8.10;6.40;;;;;;;;;;5065080;28;20214;-61
2024/01/30 03:49:06;;;;;;;9.33;6.83;;;;;;;;;;5061738;28;20207;-61
2024/01/30 03:51:34;;;;;;;8.93;6.70;;;;;;;;;;5063838;28;20319;-61
2024/01/30 03:54:01;;;;;;;9.70;6.97;;;;;;;;;;5059404;28;20294;-62
2024/01/30 03:56:28;;;;;;;9.33;7.30;;;;;;;;;;5060016;28;20203;-61
2024/01/30 03:58:55;;;;;;;12.70;7.87;;;;;;;;;;5062248;28;20199;-61
2024/01/30 04:01:22;;;;;;;9.03;7.00;;;;;;;;;;5060888;28;20226;-62
2024/01/30 04:03:50;;;;;;;9.77;7.77;;;;;;;;;;5061003;28;20203;-61
2024/01/30 04:06:18;;;;;;;12.20;7.90;;;;;;;;;;5057639;28;20210;-62
2024/01/30 04:08:45;;;;;;;10.33;7.77;;;;;;;;;;5063251;28;20206;-61
2024/01/30 04:11:12;;;;;;;7.80;7.00;;;;;;;;;;5058537;28;20288;-61
2024/01/30 04:13:40;;;;;;;10.50;7.70;;;;;;;;;;5058176;28;20197;-62
2024/01/30 04:16:07;;;;;;;9.67;7.30;;;;;;;;;;5058275;28;20199;-62
2024/01/30 04:18:35;;;;;;;9.37;6.77;;;;;;;;;;5059553;28;20282;-62
2024/01/30 04:21:02;;;;;;;8.37;7.27;;;;;;;;;;5064166;28;20200;-62
2024/01/30 04:23:30;;;;;;;10.57;7.27;;;;;;;;;;5057644;28;20286;-61
2024/01/30 04:25:57;;;;;;;9.73;6.77;;;;;;;;;;5061174;28;20213;-61
2024/01/30 04:28:24;;;;;;;10.30;7.10;;;;;;;;;;5063730;28;20191;-62
2024/01/30 04:30:52;;;;;;;9.77;7.27;;;;;;;;;;5060730;28;20213;-62
2024/01/30 04:33:19;;;;;;;10.07;7.00;;;;;;;;;;5057171;28;20247;-62
2024/01/30 04:35:46;;;;;;;9.90;7.27;;;;;;;;;;5058230;28;20199;-61
2024/01/30 04:38:14;;;;;;;10.70;7.60;;;;;;;;;;5058060;28;20263;-63
2024/01/30 04:40:42;;;;;;;9.20;7.63;;;;;;;;;;5060499;28;20298;-62
2024/01/30 04:43:09;;;;;;;10.57;7.70;;;;;;;;;;5057356;28;20286;-61
2024/01/30 04:45:37;;;;;;;11.40;7.80;;;;;;;;;;5061898;28;20289;-62
2024/01/30 04:48:04;;;;;;;9.47;7.47;;;;;;;;;;5060208;28;20271;-62
2024/01/30 04:50:31;;;;;;;11.20;8.03;;;;;;;;;;5060858;28;20195;-61
2024/01/30 04:52:58;;;;;;;12.00;7.60;;;;;;;;;;5056017;28;20279;-62
2024/01/30 04:55:25;;;;;;;10.17;7.47;;;;;;;;;;5055121;28;20195;-62
2024/01/30 04:57:54;;;;;;;11.77;7.27;;;;;;;;;;5057744;28;20195;-62
2024/01/30 05:00:21;;;;;;;9.30;7.10;;;;;;;;;;5060248;28;20194;-62
2024/01/30 05:02:48;;;;;;;10.63;7.87;;;;;;;;;;5055555;28;20199;-61
2024/01/30 05:05:16;;;;;;;11.27;7.37;;;;;;;;;;5057502;28;20237;-62
2024/01/30 05:07:43;;;;;;;11.50;7.53;;;;;;;;;;5059863;28;20203;-63
2024/01/30 05:10:11;;;;;;;10.60;7.90;;;;;;;;;;5061746;28;20206;-61
2024/01/30 05:12:38;;;;;;;9.93;7.90;;;;;;;;;;5056818;28;20284;-61
2024/01/30 05:15:07;;;;;;;11.67;7.63;;;;;;;;;;5060979;28;20195;-62
2024/01/30 05:17:34;;;;;;;11.23;7.60;;;;;;;;;;5055528;28;20231;-62
2024/01/30 05:20:02;;;;;;;8.83;7.60;;;;;;;;;;5061429;28;20286;-63
2024/01/30 05:22:29;;;;;;;15.07;11.67;;;;;;;;;;5058540;28;20275;-62
2024/01/30 05:24:56;;;;;;;11.63;8.30;;;;;;;;;;5056841;28;20282;-63
2024/01/30 05:27:23;;;;;;;10.83;8.03;;;;;;;;;;5059406;28;20211;-62
2024/01/30 05:29:50;;;;;;;9.13;7.50;;;;;;;;;;5060723;28;20294;-62
2024/01/30 05:32:19;;;;;;;10.43;7.90;;;;;;;;;;5060263;28;20214;-61
2024/01/30 05:34:46;;;;;;;8.87;7.33;;;;;;;;;;5060829;28;20202;-62
2024/01/30 05:37:16;;;;;;;9.30;6.97;;;;;;;;;;5059833;28;20199;-62
2024/01/30 05:39:43;;;;;;;9.97;7.87;;;;;;;;;;5061565;28;20217;-62
2024/01/30 05:42:11;;;;;;;13.33;7.63;;;;;;;;;;5060650;28;20191;-61
2024/01/30 05:44:38;;;;;;;8.80;7.00;;;;;;;;;;5058042;28;20205;-62
2024/01/30 05:47:05;;;;;;;9.63;7.33;;;;;;;;;;5058840;28;20286;-62
2024/01/30 05:49:34;;;;;;;10.40;7.63;;;;;;;;;;5060352;28;20207;-63
2024/01/30 05:52:01;;;;;;;12.50;7.53;;;;;;;;;;5058556;28;20211;-62
2024/01/30 05:54:28;;;;;;;8.67;7.47;;;;;;;;;;5060269;28;20203;-62
2024/01/30 05:56:56;;;;;;;10.60;6.90;;;;;;;;;;5055882;28;20282;-62
2024/01/30 05:59:23;;;;;;;10.47;7.63;;;;;;;;;;5057897;28;20199;-62
2024/01/30 06:01:50;;;;;;;10.23;7.70;;;;;;;;;;5054872;28;20330;-66
2024/01/30 06:04:17;;;;;;;9.13;7.50;;;;;;;;;;5061159;28;20194;-66
2024/01/30 06:06:46;;;;;;;9.83;7.57;;;;;;;;;;5065391;28;20203;-67
2024/01/30 06:09:14;;;;;;;10.83;7.50;;;;;;;;;;5063819;28;20202;-66
2024/01/30 06:11:41;;;;;;;8.53;7.07;;;;;;;;;;5059948;28;20249;-66
2024/01/30 06:14:08;;;;;;;9.60;7.23;;;;;;;;;;5062547;28;20260;-67
2024/01/30 06:16:35;;;;;;;8.20;7.10;;;;;;;;;;5065874;28;20207;-66
2024/01/30 06:19:02;;;;;;;7.77;6.60;;;;;;;;;;5060064;28;20286;-66
2024/01/30 06:21:30;;;;;;;10.00;7.60;;;;;;;;;;5058460;28;20201;-66
2024/01/30 06:23:59;;;;;;;8.00;6.90;;;;;;;;;;5061062;28;20306;-66
2024/01/30 06:26:26;;;;;;;8.20;6.90;;;;;;;;;;5058981;28;20230;-66
2024/01/30 06:28:53;;;;;;;8.70;6.93;;;;;;;;;;5067313;28;20202;-66
2024/01/30 06:31:20;;;;;;;8.93;7.27;;;;;;;;;;5058784;28;20210;-66
2024/01/30 06:33:50;;;;;;;7.67;6.60;;;;;;;;;;5060448;28;20237;-66
2024/01/30 06:36:19;;;;;;;11.27;7.20;;;;;;;;;;5061114;28;20202;-66
2024/01/30 06:38:47;;;;;;;9.23;6.97;;;;;;;;;;5058871;28;20294;-66
2024/01/30 06:41:21;;;;;;;8.27;7.23;;;;;;;;;;5058316;28;20201;-65
2024/01/30 06:43:49;;;;;;;9.93;7.60;;;;;;;;;;5068250;28;20206;-66
2024/01/30 06:46:17;;;;;;;8.30;6.30;;;;;;;;;;5056290;28;20198;-66
2024/01/30 06:48:45;;;;;;;8.60;6.97;;;;;;;;;;5060491;28;20282;-66
2024/01/30 06:51:16;;;;;;;9.87;7.37;;;;;;;;;;5041396;28;20203;-65
2024/01/30 06:53:43;;;;;;;8.33;7.13;;;;;;;;;;5035693;28;20227;-66
2024/01/30 06:56:13;;;;;;;8.50;6.77;;;;;;;;;;5061631;28;20198;-66
2024/01/30 06:58:42;;;;;;;11.57;6.83;;;;;;;;;;5063920;28;20203;-66
2024/01/30 07:01:10;;;;;;;8.93;6.90;;;;;;;;;;5065213;28;20243;-65
2024/01/30 07:03:37;;;;;;;9.77;6.40;;;;;;;;;;5061795;28;20208;-66
2024/01/30 07:06:04;;;;;;;9.73;6.90;;;;;;;;;;5061526;28;20207;-66
2024/01/30 07:08:32;;;;;;;9.50;6.90;;;;;;;;;;5062847;28;20294;-65
2024/01/30 07:10:59;;;;;;;9.77;7.13;;;;;;;;;;5059184;28;20209;-66
2024/01/30 07:13:26;;;;;;;10.50;7.40;;;;;;;;;;5061761;28;20238;-62
2024/01/30 07:15:55;;;;;;;8.70;7.00;;;;;;;;;;5061080;28;20196;-61
2024/01/30 07:18:22;;;;;;;8.13;6.60;;;;;;;;;;5068387;28;20210;-62
2024/01/30 07:20:49;;;;;;;8.00;6.73;;;;;;;;;;5067301;28;20266;-62
2024/01/30 07:23:17;;;;;;;9.20;7.03;;;;;;;;;;5064814;28;20206;-61
2024/01/30 07:25:45;;;;;;;8.60;6.53;;;;;;;;;;5056722;28;20195;-62
2024/01/30 07:28:13;;;;;;;8.57;7.50;;;;;;;;;;5061476;28;20201;-61
2024/01/30 07:30:40;;;;;;;8.80;7.37;;;;;;;;;;5064153;28;20199;-61
2024/01/30 07:33:09;;;;;;;8.60;7.10;;;;;;;;;;5060677;28;20330;-62
2024/01/30 07:35:36;;;;;;;7.60;6.63;;;;;;;;;;5061417;28;20204;-62
2024/01/30 07:38:03;;;;;;;9.63;7.10;;;;;;;;;;5060648;28;20290;-62
2024/01/30 07:40:32;;;;;;;8.57;6.80;;;;;;;;;;5061909;28;20268;-61
2024/01/30 07:42:59;;;;;;;9.00;6.90;;;;;;;;;;5061825;28;20195;-61
2024/01/30 07:45:27;;;;;;;7.97;7.17;;;;;;;;;;5057535;28;20217;-62
2024/01/30 07:47:55;;;;;;;7.83;6.77;;;;;;;;;;5059906;28;20218;-62
2024/01/30 07:50:23;;;;;;;10.70;7.40;;;;;;;;;;5056007;28;20206;-61
2024/01/30 07:52:54;;;;;;;10.87;7.37;;;;;;;;;;5054141;28;20221;-61
2024/01/30 08:01:29;;;;;;;8.03;6.90;;;;;;;;;;5060856;28;20273;-61
2024/01/30 08:03:56;;;;;;;9.57;7.30;;;;;;;;;;5052769;28;20322;-61
2024/01/30 08:06:25;;;;;;;9.00;7.10;;;;;;;;;;5062004;28;20241;-62
2024/01/30 08:08:53;;;;;;;9.90;7.90;;;;;;;;;;5057939;28;20278;-61
2024/01/30 08:11:25;;;;;;;10.03;7.10;;;;;;;;;;5058679;28;20199;-62
2024/01/30 08:13:52;;;;;;;8.70;6.57;;;;;;;;;;5064918;28;20329;-61
2024/01/30 08:16:19;;;;;;;10.60;6.93;;;;;;;;;;5061553;28;20226;-61
2024/01/30 08:18:46;;;;;;;8.27;6.43;;;;;;;;;;5061743;28;20377;-62
2024/01/30 08:21:14;;;;;;;8.23;6.30;;;;;;;;;;5063325;28;20200;-62
2024/01/30 08:23:42;;;;;;;8.37;6.77;;;;;;;;;;5054251;28;20287;-65
2024/01/30 08:26:09;;;;;;;7.97;6.47;;;;;;;;;;5052178;28;20306;-65
2024/01/30 08:28:37;;;;;;;9.83;6.83;;;;;;;;;;5056899;28;20210;-65
2024/01/30 08:31:04;;;;;;;8.00;6.40;;;;;;;;;;5063068;28;20223;-65
2024/01/30 08:33:31;;;;;;;9.67;6.83;;;;;;;;;;5062814;28;20257;-66
2024/01/30 08:35:58;;;;;;;11.23;7.37;;;;;;;;;;5058930;28;20210;-66
2024/01/30 08:38:26;;;;;;;9.73;7.30;;;;;;;;;;5063112;28;20206;-65
2024/01/30 08:40:54;;;;;;;8.90;6.60;;;;;;;;;;5064526;28;20207;-66
2024/01/30 08:43:21;;;;;;;6.40;5.50;;;;;;;;;;5058444;28;20215;-65
2024/01/30 08:45:48;;;;;;;7.40;5.60;;;;;;;;;;5059120;28;20203;-66
2024/01/30 08:48:17;;;;;;;9.93;6.17;;;;;;;;;;5058458;28;20286;-66
2024/01/30 08:50:44;;;;;;;7.97;6.50;;;;;;;;;;5059089;28;20222;-66
2024/01/30 08:53:11;;;;;;;8.27;6.57;;;;;;;;;;5063722;28;20207;-66
2024/01/30 08:55:39;;;;;;;9.17;6.67;;;;;;;;;;5062136;28;20195;-65
2024/01/30 08:58:07;;;;;;;8.63;6.87;;;;;;;;;;5063297;28;20250;-66
2024/01/30 09:00:35;;;;;;;10.43;6.57;;;;;;;;;;5061558;28;20316;-66
2024/01/30 09:03:02;;;;;;;8.43;7.23;;;;;;;;;;5059521;28;20309;-65
2024/01/30 09:05:29;;;;;;;9.73;6.97;;;;;;;;;;5063374;28;20290;-65
2024/01/30 09:07:56;;;;;;;9.00;6.77;;;;;;;;;;5060883;28;20199;-66
2024/01/30 09:10:23;;;;;;;8.50;6.97;;;;;;;;;;5057161;28;20251;-65
2024/01/30 09:12:51;;;;;;;10.17;7.27;;;;;;;;;;5058614;28;20310;-65
2024/01/30 09:15:20;;;;;;;10.53;7.70;;;;;;;;;;5058946;28;20199;-65
2024/01/30 09:17:47;;;;;;;8.17;6.87;;;;;;;;;;5061946;28;20200;-65
2024/01/30 09:20:14;;;;;;;8.47;6.37;;;;;;;;;;5066941;28;20271;-66
2024/01/30 09:22:41;;;;;;;7.83;6.13;;;;;;;;;;5060383;28;20207;-65
2024/01/30 09:25:10;;;;;;;8.10;5.87;;;;;;;;;;5062700;28;20205;-66
2024/01/30 09:27:37;;;;;;;8.23;6.03;;;;;;;;;;5058344;28;20277;-66
2024/01/30 09:30:05;;;;;;;7.87;6.10;;;;;;;;;;5061730;28;20195;-66
2024/01/30 09:32:34;;;;;;;7.33;5.90;;;;;;;;;;5057821;28;20202;-61
2024/01/30 09:35:01;;;;;;;6.53;5.83;;;;;;;;;;5061030;28;20202;-61
2024/01/30 09:37:28;;;;;;;8.93;6.40;;;;;;;;;;5057925;28;20266;-63
2024/01/30 09:39:55;;;;;;;8.93;7.33;;;;;;;;;;5060724;28;20198;-62
2024/01/30 09:42:26;;;;;;;7.17;6.10;;;;;;;;;;5062086;28;20198;-62
2024/01/30 09:44:55;;;;;;;8.83;6.50;;;;;;;;;;5064971;28;20287;-61
2024/01/30 09:47:22;;;;;;;7.13;6.40;;;;;;;;;;5058559;28;20203;-62
2024/01/30 09:49:51;;;;;;;9.87;6.40;;;;;;;;;;5058980;28;20211;-61
2024/01/30 09:52:18;;;;;;;7.63;6.50;;;;;;;;;;5059616;28;20234;-62
2024/01/30 09:54:46;;;;;;;7.80;6.53;;;;;;;;;;5063890;28;20234;-61
2024/01/30 09:57:13;;;;;;;7.83;6.50;;;;;;;;;;5057435;28;20202;-61
2024/01/30 09:59:43;;;;;;;9.77;6.90;;;;;;;;;;5063088;28;20198;-61
2024/01/30 10:02:11;;;;;;;8.10;6.33;;;;;;;;;;5065401;28;20223;-62
2024/01/30 10:04:38;;;;;;;7.53;6.53;;;;;;;;;;5058188;28;20191;-61
2024/01/30 10:07:07;;;;;;;10.23;6.30;;;;;;;;;;5058659;28;20202;-61
2024/01/30 10:09:35;;;;;;;9.23;6.50;;;;;;;;;;5064306;28;20229;-62
2024/01/30 10:12:03;;;;;;;6.37;5.87;;;;;;;;;;5059753;28;20210;-61
2024/01/30 10:14:30;;;;;;;8.60;6.80;;;;;;;;;;5064854;28;20300;-61
2024/01/30 10:16:59;;;;;;;6.27;5.67;;;;;;;;;;5059951;28;20294;-61
2024/01/30 10:19:26;;;;;;;8.73;6.60;;;;;;;;;;5059674;28;20206;-62
2024/01/30 10:21:54;;;;;;;7.90;6.07;;;;;;;;;;5064142;28;20278;-61
2024/01/30 10:24:25;;;;;;;7.53;5.77;;;;;;;;;;5055450;28;20206;-61
2024/01/30 10:26:52;;;;;;;6.20;5.60;;;;;;;;;;5061194;28;20195;-61
2024/01/30 10:29:19;;;;;;;8.60;6.30;;;;;;;;;;5056766;28;20196;-62
2024/01/30 10:31:47;;;;;;;7.57;6.10;;;;;;;;;;5060662;28;20199;-62
2024/01/30 10:39:37;;;;;;;10.00;7.50;;;;;;;;;;5006693;28;20213;-65
2024/01/30 10:42:05;;;;;;;7.90;6.77;;;;;;;;;;5007481;28;20200;-66
2024/01/30 10:44:37;;;;;;;7.07;5.93;;;;;;;;;;5008134;28;20216;-65
2024/01/30 10:47:08;;;;;;;6.33;5.73;;;;;;;;;;5010139;28;20207;-65
2024/01/30 10:49:35;;;;;;;6.50;5.90;;;;;;;;;;5010407;28;20219;-65
2024/01/30 10:52:03;;;;;;;7.77;6.00;;;;;;;;;;5008615;28;20200;-65
2024/01/30 10:54:30;;;;;;;6.27;5.57;;;;;;;;;;5008159;28;20267;-66
2024/01/30 10:57:01;;;;;;;8.43;6.33;;;;;;;;;;5010769;28;20201;-66
2024/01/30 10:59:30;;;;;;;6.57;5.70;;;;;;;;;;5007171;28;20205;-65
2024/01/30 11:01:58;;;;;;;7.47;6.30;;;;;;;;;;5016065;28;20300;-65
2024/01/30 11:04:25;;;;;;;7.60;6.50;;;;;;;;;;5014694;28;20197;-65
2024/01/30 11:06:54;;;;;;;7.93;6.10;;;;;;;;;;5009968;28;20208;-65
2024/01/30 11:09:21;;;;;;;7.27;6.47;;;;;;;;;;5008835;28;20216;-66
2024/01/30 11:11:51;;;;;;;9.10;6.97;;;;;;;;;;5051408;22;20247;-92
2024/01/30 11:14:49;;;;;;;9.63;6.80;;;;;;;;;;5042540;28;20231;-94
2024/01/30 11:17:18;;;;;;;6.27;5.67;;;;;;;;;;5040225;28;20272;-93
2024/01/30 11:19:45;;;;;;;6.23;5.63;;;;;;;;;;5036459;28;20213;-94
2024/01/30 11:22:13;;;;;;;6.93;5.67;;;;;;;;;;5040438;28;20280;-91
2024/01/30 11:24:42;;;;;;;6.60;5.90;;;;;;;;;;5036644;28;20211;-94
2024/01/30 11:27:10;;;;;;;7.47;5.97;;;;;;;;;;5040048;28;20219;-93
2024/01/30 11:29:37;;;;;;;9.07;5.93;;;;;;;;;;5036098;28;20208;-93
2024/01/30 11:32:05;;;;;;;7.43;5.83;;;;;;;;;;5037664;28;20203;-89
2024/01/30 11:34:42;;;;;;;8.23;5.43;;;;;;;;;;5039286;28;20335;-88
2024/01/30 11:37:11;;;;;;;8.23;5.47;;;;;;;;;;5036706;28;20211;-89
2024/01/30 11:39:41;;;;;;;6.80;5.80;;;;;;;;;;5041208;28;20271;-88
2024/01/30 11:42:09;;;;;;;8.60;6.10;;;;;;;;;;5038052;28;20209;-88
2024/01/30 11:44:40;;;;;;;6.90;5.27;;;;;;;;;;5040867;28;20205;-89
2024/01/30 11:47:10;;;;;;;6.97;5.83;;;;;;;;;;5033122;28;20221;-89
2024/01/30 11:49:39;;;;;;;6.73;6.03;;;;;;;;;;5042222;28;20212;-88
2024/01/30 11:52:07;;;;;;;7.07;5.77;;;;;;;;;;5039443;28;20205;-88
2024/01/30 11:54:37;;;;;;;7.00;6.00;;;;;;;;;;5044210;28;20224;-88
2024/01/30 11:57:06;;;;;;;7.30;5.83;;;;;;;;;;5041128;28;20231;-88
2024/01/30 11:59:33;;;;;;;7.10;5.60;;;;;;;;;;5035110;28;20212;-88
2024/01/30 12:02:06;;;;;;;7.90;5.80;;;;;;;;;;5033215;28;20207;-88
2024/01/30 12:04:33;;;;;;;6.20;5.60;;;;;;;;;;5035689;28;20205;-88
2024/01/30 12:07:02;;;;;;;7.20;5.60;;;;;;;;;;5038796;28;20212;-89
2024/01/30 12:09:29;;;;;;;8.40;5.67;;;;;;;;;;5036948;28;20208;-88
2024/01/30 12:11:56;;;;;;;7.13;5.57;;;;;;;;;;5033822;28;20264;-89
2024/01/30 12:14:25;;;;;;;6.40;5.80;;;;;;;;;;5035144;28;20231;-88
2024/01/30 12:16:54;;;;;;;8.50;6.40;;;;;;;;;;5038360;28;20212;-88
2024/01/30 12:19:24;;;;;;;8.67;6.53;;;;;;;;;;5034048;28;20204;-89
2024/01/30 12:21:56;;;;;;;6.27;5.67;;;;;;;;;;5035041;28;20204;-88
2024/01/30 12:24:25;;;;;;;6.70;6.00;;;;;;;;;;5035517;28;20200;-89
2024/01/30 12:26:52;;;;;;;6.80;5.80;;;;;;;;;;5039701;28;20216;-88
2024/01/30 12:29:22;;;;;;;8.30;6.03;;;;;;;;;;5036313;28;20223;-89
2024/01/30 12:31:50;;;;;;;6.50;5.87;;;;;;;;;;5034744;28;20204;-89
2024/01/30 12:34:17;;;;;;;6.50;5.53;;;;;;;;;;5031795;28;20571;-88
2024/01/30 12:36:45;;;;;;;6.30;5.70;;;;;;;;;;5034562;28;20291;-88
2024/01/30 12:39:20;;;;;;;6.20;5.10;;;;;;;;;;5033121;28;20216;-88
2024/01/30 12:41:57;;;;;;;7.83;5.93;;;;;;;;;;5035112;28;20234;-89
2024/01/30 12:44:25;;;;;;;6.23;5.63;;;;;;;;;;5036774;28;20207;-89
2024/01/30 12:46:52;;;;;;;6.60;5.90;;;;;;;;;;5038553;28;20220;-88
2024/01/30 12:49:19;;;;;;;6.47;5.47;;;;;;;;;;5030904;28;20212;-89
2024/01/30 12:51:47;;;;;;;6.93;5.00;;;;;;;;;;5035896;28;20209;-88
2024/01/30 12:54:14;;;;;;;7.23;5.40;;;;;;;;;;5036258;28;20231;-89
2024/01/30 12:56:41;;;;;;;9.27;5.50;;;;;;;;;;5030380;28;20201;-89
2024/01/30 12:59:11;;;;;;;7.10;6.13;;;;;;;;;;5032957;28;20264;-89
2024/01/30 13:01:38;;;;;;;6.60;5.93;;;;;;;;;;5033013;28;20208;-88
2024/01/30 13:04:06;;;;;;;6.20;5.47;;;;;;;;;;5034738;28;20208;-88
2024/01/30 13:06:33;;;;;;;7.97;5.33;;;;;;;;;;5037950;28;20218;-89
2024/01/30 13:09:01;;;;;;;7.03;5.50;;;;;;;;;;5034999;28;20232;-88
2024/01/30 13:11:28;;;;;;;6.43;5.37;;;;;;;;;;5037974;28;20204;-87
2024/01/30 13:13:55;;;;;;;7.43;5.37;;;;;;;;;;5037027;28;20208;-89
2024/01/30 13:16:24;;;;;;;6.73;5.20;;;;;;;;;;5034703;28;20219;-88
2024/01/30 13:18:51;;;;;;;5.57;4.93;;;;;;;;;;5035269;28;20208;-88
2024/01/30 13:21:19;;;;;;;6.93;5.33;;;;;;;;;;5034785;28;20208;-89
2024/01/30 13:23:46;;;;;;;6.93;5.40;;;;;;;;;;5033911;28;20238;-89
2024/01/30 13:26:13;;;;;;;7.73;5.60;;;;;;;;;;5033935;28;20216;-89
2024/01/30 13:28:41;;;;;;;7.80;5.33;;;;;;;;;;5036193;28;20208;-89
2024/01/30 13:31:08;;;;;;;6.67;5.50;;;;;;;;;;5033814;28;20213;-89
2024/01/30 13:33:37;;;;;;;6.93;5.60;;;;;;;;;;5039024;28;20211;-89
2024/01/30 13:36:04;;;;;;;6.67;5.47;;;;;;;;;;5033260;28;20233;-88
2024/01/30 13:38:32;;;;;;;8.37;5.57;;;;;;;;;;5034765;28;20205;-88
2024/01/30 13:41:00;;;;;;;6.77;5.47;;;;;;;;;;5034533;28;20318;-89
2024/01/30 13:43:27;;;;;;;6.77;5.63;;;;;;;;;;5029124;28;20242;-88
2024/01/30 13:46:05;;;;;;;6.53;5.40;;;;;;;;;;5028153;28;20201;-89
2024/01/30 13:48:35;;;;;;;8.03;5.93;;;;;;;;;;5023825;28;20227;-89
2024/01/30 13:51:04;;;;;;;7.00;6.00;;;;;;;;;;5023246;28;20227;-88
2024/01/30 13:53:36;;;;;;;8.37;5.67;;;;;;;;;;5024076;28;20272;-88
2024/01/30 13:56:04;;;;;;;6.90;5.40;;;;;;;;;;5024431;28;20297;-89
2024/01/30 13:58:33;;;;;;;7.33;5.53;;;;;;;;;;5022341;28;20239;-88
2024/01/30 14:01:00;;;;;;;6.23;5.37;;;;;;;;;;5026491;28;20282;-88
2024/01/30 14:03:28;;;;;;;6.90;5.67;;;;;;;;;;5034097;28;20210;-89
2024/01/30 14:05:58;;;;;;;6.20;5.50;;;;;;;;;;5037596;28;20211;-88
2024/01/30 14:08:28;;;;;;;7.47;5.80;;;;;;;;;;5033104;28;20207;-89
2024/01/30 14:11:03;;;;;;;7.57;5.30;;;;;;;;;;5033832;28;20201;-88
2024/01/30 14:13:30;;;;;;;6.27;5.57;;;;;;;;;;5035936;28;20266;-88
2024/01/30 14:15:58;;;;;;;5.80;5.20;;;;;;;;;;5035183;28;20232;-88
2024/01/30 14:18:26;;;;;;;7.33;5.70;;;;;;;;;;5031928;28;20211;-89
2024/01/30 14:21:07;;;;;;;6.93;5.73;;;;;;;;;;5036106;28;20204;-89
2024/01/30 14:23:41;;;;;;;6.23;5.17;;;;;;;;;;5037241;28;20216;-89
2024/01/30 14:26:09;;;;;;;10.27;5.70;;;;;;;;;;5025841;28;20215;-90
2024/01/30 14:28:48;;;;;;;6.53;5.80;;;;;;;;;;5023219;28;20216;-90
2024/01/30 14:31:16;;;;;;;6.17;5.23;;;;;;;;;;5029112;28;20298;-89
2024/01/30 14:33:46;;;;;;;7.03;6.17;;;;;;;;;;5037120;28;20205;-89
2024/01/30 14:36:15;;;;;;;8.83;5.73;;;;;;;;;;5040157;28;20216;-89
2024/01/30 14:38:46;;;;;;;7.43;5.90;;;;;;;;;;5039093;28;20254;-88
2024/01/30 14:41:19;;;;;;;9.27;6.10;;;;;;;;;;5041698;28;20207;-89
2024/01/30 14:43:47;;;;;;;6.50;5.33;;;;;;;;;;5036195;28;20290;-90
2024/01/30 14:46:14;;;;;;;7.70;5.40;;;;;;;;;;5033112;28;20238;-88
2024/01/30 14:48:44;;;;;;;6.80;6.07;;;;;;;;;;5030298;28;20208;-89
2024/01/30 14:51:14;;;;;;;9.07;5.77;;;;;;;;;;5037392;28;20230;-88
2024/01/30 14:53:42;;;;;;;6.20;5.60;;;;;;;;;;5037934;28;20208;-88
2024/01/30 14:56:20;;;;;;;7.80;5.73;;;;;;;;;;5040167;28;20227;-90